KSTL/STL METAR and TAF weather

Enter ICAO airport designator
Station Type Date Time Source
KSTL METAR 2017/08/21 22:51 UTC NOAA

KSTL 212251Z 11009KT 10SM FEW055 FEW100 BKN250 31/23 A3003 RMK AO2 SLP154 T03060228


Station Type Date Time Source
KSTL Decoded METAR 2017/08/21 22:51 UTC NOAA

LAMBERT-ST LOUIS INTERNATIONAL AIRPORT , MO, United States (KSTL) 38-45N 90-22W 171M
Aug 21, 2017 - 06:51 PM EDT / 2017.08.21 2251 UTC
Wind: from the ESE (110 degrees) at 10 MPH (9 KT):0
Visibility: 10 mile(s):0
Sky conditions: mostly cloudy
Temperature: 87.1 F (30.6 C)
Heat index: 94.5 F (34.7 C):1
Dew Point: 73.0 F (22.8 C)
Relative Humidity: 63%
Pressure (altimeter): 30.03 in. Hg (1016 hPa)
ob: KSTL 212251Z 11009KT 10SM FEW055 FEW100 BKN250 31/23 A3003 RMK AO2 SLP154 T03060228
cycle: 23

Station Type Date Time Source
KSTL TAF 2017/08/21 20:09 UTC NOAA

TAF
AMD KSTL 212007Z 2120/2224 05008KT P6SM VCTS BKN060CB
TEMPO 2120/2121 30018G30KT 3SM TSRA OVC040CB
FM220000 18008KT P6SM SCT060
FM220800 20009KT P6SM VCTS BKN060CB
TEMPO 2208/2212 4SM -TSRA OVC030CB
FM221200 26005KT 6SM -SHRA VCTS OVC030CB
FM221700 27006KT P6SM OVC040


Example: see airport list